createdAt,value
2022-09-14T00:00:34.915Z,15.45
2022-09-14T00:10:46.010Z,15.52
2022-09-14T00:20:48.991Z,15.57
2022-09-14T00:30:51.912Z,15.60
2022-09-14T00:41:01.395Z,15.70
2022-09-14T00:51:03.942Z,15.65
2022-09-14T01:01:08.290Z,15.58
2022-09-14T01:11:31.882Z,15.40
2022-09-14T01:21:38.450Z,15.18
2022-09-14T01:32:04.234Z,15.14
2022-09-14T01:42:07.425Z,15.17
2022-09-14T01:52:14.913Z,14.95
2022-09-14T02:02:23.220Z,14.80
2022-09-14T02:12:26.224Z,14.65
2022-09-14T02:22:30.402Z,14.54
2022-09-14T02:32:45.017Z,14.50
2022-09-14T02:42:53.268Z,14.49
2022-09-14T02:53:08.444Z,14.56
2022-09-14T03:03:13.321Z,14.48
2022-09-14T03:13:15.974Z,14.27
2022-09-14T03:23:18.924Z,14.20
2022-09-14T03:33:21.346Z,14.18
2022-09-14T03:43:24.310Z,14.04
2022-09-14T03:53:26.890Z,14.03
2022-09-14T04:03:29.853Z,14.10
2022-09-14T04:13:32.940Z,14.09
2022-09-14T04:23:46.247Z,14.09
2022-09-14T04:33:57.349Z,14.19
2022-09-14T04:44:00.908Z,14.23
2022-09-14T04:54:05.832Z,14.21
2022-09-14T05:04:08.917Z,14.22
2022-09-14T05:14:14.805Z,14.20
2022-09-14T05:24:19.129Z,14.83
2022-09-14T05:34:21.868Z,15.60
2022-09-14T05:44:25.011Z,16.31
2022-09-14T05:54:29.446Z,16.86
2022-09-14T06:04:32.916Z,17.03
2022-09-14T06:14:36.127Z,17.62
2022-09-14T06:24:38.872Z,17.20
2022-09-14T06:34:41.883Z,16.75
2022-09-14T06:44:44.901Z,16.58
2022-09-14T06:54:47.319Z,16.73
2022-09-14T07:04:50.009Z,16.58
2022-09-14T07:14:53.697Z,16.63
2022-09-14T07:25:29.644Z,16.61
2022-09-14T07:35:33.399Z,16.77
2022-09-14T07:45:37.107Z,16.78
2022-09-14T07:55:41.079Z,16.94
2022-09-14T08:05:43.900Z,17.16
2022-09-14T08:15:46.929Z,17.33
2022-09-14T08:25:49.984Z,17.79
2022-09-14T08:35:59.829Z,18.73
2022-09-14T08:46:06.451Z,19.14
2022-09-14T08:56:19.043Z,19.08
2022-09-14T09:06:34.512Z,19.20
2022-09-14T09:16:38.048Z,19.67
2022-09-14T09:26:40.865Z,19.53
2022-09-14T09:36:46.973Z,19.30
2022-09-14T09:47:04.179Z,19.24
2022-09-14T09:57:31.211Z,19.65
2022-09-14T10:07:37.091Z,20.32
2022-09-14T10:17:39.904Z,20.67
2022-09-14T10:27:55.701Z,20.62
2022-09-14T10:38:18.066Z,20.20
2022-09-14T10:49:02.533Z,19.93
2022-09-14T10:59:44.010Z,19.66
2022-09-14T11:10:16.599Z,19.18
2022-09-14T11:20:22.802Z,18.96
2022-09-14T11:30:38.223Z,18.64
2022-09-14T11:40:49.296Z,18.91
2022-09-14T11:50:57.405Z,19.47
2022-09-14T12:01:01.879Z,19.62
2022-09-14T12:11:10.385Z,19.32
2022-09-14T12:21:24.694Z,19.00
2022-09-14T12:31:36.397Z,18.96
2022-09-14T12:41:41.841Z,18.84
2022-09-14T12:51:49.974Z,18.68
2022-09-14T13:02:23.961Z,18.69
2022-09-14T13:12:41.556Z,18.64
2022-09-14T13:22:44.076Z,18.58
2022-09-14T13:32:49.586Z,18.73
2022-09-14T13:42:52.495Z,18.51
2022-09-14T13:53:02.415Z,18.74
2022-09-14T14:03:06.554Z,18.77
2022-09-14T14:13:08.907Z,19.11
2022-09-14T14:23:11.874Z,19.04
2022-09-14T14:33:19.378Z,18.82
2022-09-14T14:43:25.401Z,18.78
2022-09-14T14:53:28.020Z,18.61
2022-09-14T15:03:31.030Z,18.32
2022-09-14T15:13:33.866Z,18.07
2022-09-14T15:23:36.942Z,18.19
2022-09-14T15:33:39.937Z,18.00
2022-09-14T15:43:44.019Z,17.82
2022-09-14T15:53:47.985Z,17.99
2022-09-14T16:03:55.718Z,17.83
2022-09-14T16:13:58.949Z,17.73
2022-09-14T16:24:03.542Z,17.65
2022-09-14T16:34:17.933Z,17.59
2022-09-14T16:44:23.568Z,17.51
2022-09-14T16:54:26.150Z,17.44
2022-09-14T17:04:28.919Z,17.39
2022-09-14T17:14:33.853Z,17.27
2022-09-14T17:24:36.875Z,17.04
2022-09-14T17:34:40.033Z,16.89
2022-09-14T17:44:43.834Z,16.71
2022-09-14T17:54:47.080Z,16.60
2022-09-14T18:04:49.858Z,16.48
2022-09-14T18:14:53.090Z,16.35
2022-09-14T18:24:56.135Z,16.26
2022-09-14T18:34:59.135Z,16.19
2022-09-14T18:45:02.177Z,16.22
2022-09-14T18:55:07.897Z,16.23
2022-09-14T19:05:12.602Z,16.15
2022-09-14T19:15:16.405Z,16.16
2022-09-14T19:25:20.368Z,16.06
2022-09-14T19:35:24.081Z,16.02
2022-09-14T19:45:27.168Z,16.00
2022-09-14T19:55:31.374Z,16.00
2022-09-14T20:05:34.328Z,15.96
2022-09-14T20:15:36.924Z,15.85
2022-09-14T20:25:39.919Z,15.79
2022-09-14T20:35:42.947Z,15.86
2022-09-14T20:45:45.877Z,15.83
2022-09-14T20:55:48.932Z,15.78
2022-09-14T21:05:53.457Z,15.70
2022-09-14T21:15:56.947Z,15.75
2022-09-14T21:25:59.949Z,15.70
2022-09-14T21:36:07.589Z,15.82
2022-09-14T21:46:11.042Z,15.84
2022-09-14T21:56:14.327Z,15.83
2022-09-14T22:06:17.626Z,15.88
2022-09-14T22:16:21.015Z,15.85
2022-09-14T22:26:25.405Z,15.84
2022-09-14T22:36:29.214Z,15.80
2022-09-14T22:46:32.254Z,15.88
2022-09-14T22:56:37.573Z,15.89
2022-09-14T23:06:46.025Z,15.87
2022-09-14T23:16:48.902Z,15.92
2022-09-14T23:26:51.905Z,15.88
2022-09-14T23:36:54.948Z,15.84
2022-09-14T23:46:57.937Z,15.85
2022-09-14T23:57:00.867Z,15.74
